createdAt,value
2023-01-19T00:00:17.218Z,100092.59
2023-01-19T00:05:14.735Z,100084.19
2023-01-19T00:10:11.349Z,100098.66
2023-01-19T00:15:08.870Z,100088.91
2023-01-19T00:20:07.246Z,100087.75
2023-01-19T00:25:06.254Z,100093.06
2023-01-19T00:30:03.072Z,100102.03
2023-01-19T00:34:59.721Z,100096.53
2023-01-19T00:39:56.955Z,100103.31
2023-01-19T00:44:53.579Z,100091.91
2023-01-19T00:49:50.150Z,100106.00
2023-01-19T00:54:46.687Z,100108.44
2023-01-19T00:59:43.959Z,100099.44
2023-01-19T01:04:40.509Z,100104.19
2023-01-19T01:09:37.292Z,100080.38
2023-01-19T01:14:33.975Z,100087.38
2023-01-19T01:19:31.243Z,100087.72
2023-01-19T01:24:27.781Z,100077.47
2023-01-19T01:29:24.291Z,100096.09
2023-01-19T01:34:20.957Z,100094.75
2023-01-19T01:39:18.385Z,100090.16
2023-01-19T01:44:33.607Z,100087.63
2023-01-19T01:49:30.264Z,100082.31
2023-01-19T01:54:29.235Z,100087.53
2023-01-19T01:59:27.728Z,100075.88
2023-01-19T02:04:24.572Z,100066.66
2023-01-19T02:09:40.443Z,100058.72
2023-01-19T02:14:37.731Z,100056.63
2023-01-19T02:19:37.324Z,100067.91
2023-01-19T02:24:35.265Z,100045.81
2023-01-19T02:29:32.165Z,100055.09
2023-01-19T02:34:29.603Z,100062.00
2023-01-19T02:39:27.852Z,100091.31
2023-01-19T02:44:26.387Z,100060.31
2023-01-19T02:49:23.204Z,100075.03
2023-01-19T02:54:37.649Z,100086.03
2023-01-19T02:59:40.552Z,100090.03
2023-01-19T03:04:44.694Z,100104.78
2023-01-19T03:09:43.573Z,100092.28
2023-01-19T03:14:42.652Z,100097.88
2023-01-19T03:19:41.254Z,100105.28
2023-01-19T03:24:39.925Z,100112.66
2023-01-19T03:29:38.201Z,100091.41
2023-01-19T03:34:36.246Z,100103.88
2023-01-19T03:39:33.870Z,100116.94
2023-01-19T03:44:32.175Z,100110.25
2023-01-19T03:49:30.299Z,100113.31
2023-01-19T03:54:28.032Z,100125.41
2023-01-19T03:59:24.537Z,100121.47
2023-01-19T04:04:21.292Z,100118.91
2023-01-19T04:09:19.393Z,100128.00
2023-01-19T04:14:17.456Z,100126.00
2023-01-19T04:19:13.952Z,100130.84
2023-01-19T04:24:10.617Z,100155.44
2023-01-19T04:29:07.174Z,100145.66
2023-01-19T04:34:04.568Z,100151.97
2023-01-19T04:39:01.201Z,100159.75
2023-01-19T04:43:57.860Z,100160.28
2023-01-19T04:48:54.463Z,100160.13
2023-01-19T04:53:51.828Z,100184.16
2023-01-19T04:58:48.518Z,100169.22
2023-01-19T05:03:45.236Z,100167.81
2023-01-19T05:08:43.383Z,100163.94
2023-01-19T05:13:41.828Z,100164.78
2023-01-19T05:18:38.402Z,100178.69
2023-01-19T05:23:35.117Z,100181.00
2023-01-19T05:28:32.530Z,100193.56
2023-01-19T05:33:29.738Z,100169.09
2023-01-19T05:38:34.461Z,100208.63
2023-01-19T05:43:31.770Z,100213.03
2023-01-19T05:48:28.953Z,100218.34
2023-01-19T05:53:25.857Z,100229.56
2023-01-19T05:58:22.474Z,100247.88
2023-01-19T06:03:19.276Z,100238.81
2023-01-19T06:08:16.627Z,100220.00
2023-01-19T06:13:13.154Z,100225.72
2023-01-19T06:18:25.706Z,100244.66
2023-01-19T06:23:24.197Z,100257.22
2023-01-19T06:28:21.057Z,100268.94
2023-01-19T06:33:18.335Z,100264.69
2023-01-19T06:38:16.442Z,100252.78
2023-01-19T06:43:15.855Z,100272.78
2023-01-19T06:48:13.238Z,100267.78
2023-01-19T06:53:10.467Z,100264.78
2023-01-19T06:58:08.055Z,100251.75
2023-01-19T07:03:07.167Z,100262.91
2023-01-19T07:08:04.178Z,100254.84
2023-01-19T07:13:01.417Z,100251.44
2023-01-19T07:18:07.016Z,100239.97
2023-01-19T07:23:05.677Z,100249.78
2023-01-19T07:28:04.457Z,100272.38
2023-01-19T07:33:11.481Z,100281.34
2023-01-19T07:38:18.105Z,100268.97
2023-01-19T07:43:15.144Z,100279.19
2023-01-19T07:48:15.595Z,100285.03
2023-01-19T07:53:18.855Z,100282.56
2023-01-19T07:58:24.368Z,100277.06
2023-01-19T08:04:44.607Z,100262.19
2023-01-19T08:09:59.433Z,100300.56
2023-01-19T08:15:25.095Z,100256.28
2023-01-19T08:44:25.405Z,100242.97
2023-01-19T08:49:33.587Z,100241.44
2023-01-19T09:12:10.116Z,100265.47
2023-01-19T09:17:49.576Z,100260.47
2023-01-19T09:23:03.424Z,100255.84
2023-01-19T09:28:30.294Z,100261.66
2023-01-19T09:33:31.331Z,100250.69
2023-01-19T09:38:31.337Z,100262.69
2023-01-19T09:43:34.029Z,100247.34
2023-01-19T09:48:35.599Z,100253.06
2023-01-19T09:53:43.562Z,100241.56
2023-01-19T09:58:41.368Z,100229.13
2023-01-19T10:03:41.255Z,100221.28
2023-01-19T10:08:41.316Z,100205.56
2023-01-19T10:13:40.986Z,100204.72
2023-01-19T10:18:46.711Z,100219.56
2023-01-19T10:23:45.305Z,100206.63
2023-01-19T10:28:42.311Z,100200.47
2023-01-19T10:33:39.150Z,100180.81
2023-01-19T10:38:37.981Z,100194.50
2023-01-19T10:43:41.840Z,100175.03
2023-01-19T10:48:40.237Z,100190.66
2023-01-19T10:53:40.150Z,100185.88
2023-01-19T10:58:37.407Z,100171.19
2023-01-19T11:03:34.409Z,100187.22
2023-01-19T11:08:33.684Z,100197.97
2023-01-19T11:13:33.688Z,100174.50
2023-01-19T11:18:33.297Z,100168.44
2023-01-19T11:23:32.289Z,100163.09
2023-01-19T11:28:31.523Z,100168.66
2023-01-19T11:33:34.312Z,100162.22
2023-01-19T11:38:31.278Z,100158.53
2023-01-19T11:43:47.787Z,100162.22
2023-01-19T11:48:49.368Z,100148.63
2023-01-19T11:53:48.565Z,100145.41
2023-01-19T11:58:48.214Z,100151.75
2023-01-19T12:03:46.629Z,100138.38
2023-01-19T12:08:48.418Z,100145.19
2023-01-19T12:13:45.697Z,100149.53
2023-01-19T12:18:44.755Z,100135.91
2023-01-19T12:23:46.874Z,100163.91
2023-01-19T12:28:47.326Z,100143.50
2023-01-19T12:33:47.063Z,100161.81
2023-01-19T12:38:48.587Z,100164.41
2023-01-19T12:43:46.271Z,100157.94
2023-01-19T12:48:43.152Z,100148.25
2023-01-19T12:53:42.674Z,100155.72
2023-01-19T12:58:44.306Z,100148.25
2023-01-19T13:03:46.234Z,100162.00
2023-01-19T13:08:55.788Z,100127.97
2023-01-19T13:14:26.537Z,100156.88
2023-01-19T13:19:30.148Z,100149.00
2023-01-19T13:24:49.298Z,100156.94
2023-01-19T13:29:46.644Z,100162.84
2023-01-19T13:34:45.227Z,100154.00
2023-01-19T13:39:43.657Z,100157.19
2023-01-19T13:44:43.025Z,100135.44
2023-01-19T13:49:43.380Z,100167.97
2023-01-19T13:54:47.120Z,100145.25
2023-01-19T13:59:43.789Z,100163.50
2023-01-19T14:04:41.902Z,100157.78
2023-01-19T14:09:39.197Z,100167.19
2023-01-19T14:14:36.153Z,100165.50
2023-01-19T14:19:47.903Z,100157.41
2023-01-19T14:24:44.665Z,100163.69
2023-01-19T14:29:42.192Z,100172.44
2023-01-19T14:34:40.791Z,100172.31
2023-01-19T14:39:39.517Z,100157.56
2023-01-19T14:44:38.127Z,100141.97
2023-01-19T14:49:35.502Z,100144.50
2023-01-19T14:54:34.637Z,100168.19
2023-01-19T14:59:32.262Z,100156.47
2023-01-19T15:04:29.506Z,100158.13
2023-01-19T15:09:26.075Z,100133.97
2023-01-19T15:14:22.940Z,100148.31
2023-01-19T15:19:20.629Z,100157.47
2023-01-19T15:24:21.082Z,100167.84
2023-01-19T15:29:24.353Z,100123.56
2023-01-19T15:34:21.755Z,100190.34
2023-01-19T15:39:18.377Z,100120.88
2023-01-19T15:44:14.922Z,100155.75
2023-01-19T15:49:11.738Z,100164.69
2023-01-19T15:54:12.480Z,100166.44
2023-01-19T15:59:09.668Z,100149.50
2023-01-19T16:04:07.222Z,100153.06
2023-01-19T16:09:21.812Z,100166.03
2023-01-19T16:14:19.074Z,100159.16
2023-01-19T16:19:15.667Z,100163.22
2023-01-19T16:24:14.332Z,100169.66
2023-01-19T16:29:11.066Z,100163.63
2023-01-19T16:34:08.767Z,100173.63
2023-01-19T16:39:06.309Z,100153.19
2023-01-19T16:44:12.235Z,100184.56
2023-01-19T16:49:12.014Z,100195.50
2023-01-19T16:54:10.711Z,100198.16
2023-01-19T16:59:07.370Z,100203.50
2023-01-19T17:04:04.135Z,100211.84
2023-01-19T17:09:04.490Z,100211.50
2023-01-19T17:14:02.021Z,100210.56
2023-01-19T17:18:59.686Z,100215.44
2023-01-19T17:23:57.046Z,100216.63
2023-01-19T17:28:58.155Z,100222.97
2023-01-19T17:33:54.865Z,100226.25
2023-01-19T17:38:52.217Z,100224.78
2023-01-19T17:43:50.835Z,100218.09
2023-01-19T17:48:51.532Z,100222.44
2023-01-19T17:53:52.091Z,100226.69
2023-01-19T17:58:59.369Z,100229.94
2023-01-19T18:04:07.940Z,100233.16
2023-01-19T18:09:06.879Z,100246.59
2023-01-19T18:14:04.718Z,100247.56
2023-01-19T18:19:02.121Z,100246.16
2023-01-19T18:24:00.968Z,100232.78
2023-01-19T18:28:57.857Z,100213.56
2023-01-19T18:33:54.603Z,100239.34
2023-01-19T18:38:54.499Z,100235.44
2023-01-19T18:43:53.511Z,100224.94
2023-01-19T18:48:51.486Z,100237.63
2023-01-19T18:53:51.785Z,100225.25
2023-01-19T18:58:51.879Z,100236.22
2023-01-19T19:03:51.131Z,100257.84
2023-01-19T19:08:49.734Z,100257.72
2023-01-19T19:13:46.731Z,100271.56
2023-01-19T19:18:49.213Z,100275.59
2023-01-19T19:23:49.573Z,100278.16
2023-01-19T19:28:46.823Z,100311.97
2023-01-19T19:33:46.405Z,100330.88
2023-01-19T19:38:43.956Z,100361.00
2023-01-19T19:43:47.034Z,100376.34
2023-01-19T19:48:45.775Z,100363.28
2023-01-19T19:53:51.510Z,100389.97
2023-01-19T19:58:49.081Z,100391.66
2023-01-19T20:03:46.632Z,100411.41
2023-01-19T20:08:43.636Z,100411.22
2023-01-19T20:13:41.384Z,100406.78
2023-01-19T20:18:38.529Z,100405.94
2023-01-19T20:23:40.424Z,100406.78
2023-01-19T20:28:37.497Z,100416.56
2023-01-19T20:33:36.521Z,100417.78
2023-01-19T20:38:33.303Z,100421.56
2023-01-19T20:43:31.184Z,100433.09
2023-01-19T20:48:28.098Z,100445.50
2023-01-19T20:53:24.708Z,100453.34
2023-01-19T20:58:21.538Z,100448.63
2023-01-19T21:03:19.133Z,100452.34
2023-01-19T21:08:16.318Z,100455.63
2023-01-19T21:13:13.004Z,100451.94
2023-01-19T21:18:12.323Z,100444.69
2023-01-19T21:23:09.803Z,100440.69
2023-01-19T21:28:06.363Z,100427.22
2023-01-19T21:33:04.538Z,100435.97
2023-01-19T21:38:01.036Z,100432.41
2023-01-19T21:42:58.605Z,100423.34
2023-01-19T21:47:55.222Z,100419.38
2023-01-19T21:52:51.823Z,100420.44
2023-01-19T21:57:49.913Z,100424.53
2023-01-19T22:03:02.812Z,100413.97
2023-01-19T22:08:00.326Z,100400.75
2023-01-19T22:13:00.978Z,100424.38
2023-01-19T22:17:58.318Z,100418.59
2023-01-19T22:22:55.720Z,100411.88
2023-01-19T22:27:52.314Z,100409.53
2023-01-19T22:32:48.866Z,100405.94
2023-01-19T22:37:46.269Z,100389.88
2023-01-19T22:42:44.889Z,100400.44
2023-01-19T22:47:41.599Z,100390.41
2023-01-19T22:52:38.295Z,100382.59
2023-01-19T22:57:36.070Z,100378.16
2023-01-19T23:02:32.748Z,100371.97
2023-01-19T23:07:29.393Z,100367.56
2023-01-19T23:12:26.104Z,100370.69
2023-01-19T23:17:23.438Z,100374.16
2023-01-19T23:22:20.219Z,100373.78
2023-01-19T23:27:16.985Z,100369.03
2023-01-19T23:32:13.715Z,100359.41
2023-01-19T23:37:10.946Z,100366.50
2023-01-19T23:42:07.689Z,100338.53
2023-01-19T23:47:04.260Z,100363.22
2023-01-19T23:52:01.109Z,100325.84
2023-01-19T23:56:58.362Z,100323.59
